Latest Weather Observations for Lochington

IDQ60801

Issued at 12:42 pm EST Friday 21 September 2018 (issued every 10 minutes, with the page automatically refreshed every 10 minutes)

About weather observations | Map of weather stations | Latest weather observations for QLD | Other Formats
Station Details ID: 035139 Name: LOCHINGTON Lat: -23.94 Lon: 147.53 Height: 267.19 m
Data from the previous 72 hours. | See also: Recent months at Lochington
Date/Time
EST
Temp
°C
App
Temp
°C
Dew
Point
°C
Rel
Hum
%
Delta-T
°C
Wind Press
QNH
hPa
Press
MSL
hPa
Rain since
9am
mm
Dir  Spd
km/h
Gust
km/h
Spd
kts
Gust
kts
21/12:30pm 25.1 19.0 -13.1 7 13.9 ESE 15 32 8 17 1021.8 1020.9 0.0
21/12:00pm 24.5 18.4 -13.5 7 13.7 E 15 28 8 15 1022.4 1021.5 0.0
21/11:30am 24.1 17.1 -12.2 8 13.4 E 20 35 11 19 1022.9 1022.0 0.0
21/11:00am 23.3 16.4 -11.3 9 12.8 ESE 20 35 11 19 1023.5 1022.6 0.0
21/10:30am 22.8 16.5 -10.4 10 12.5 ESE 17 28 9 15 1023.8 1023.0 0.0
21/10:00am 21.7 14.9 -8.9 12 11.6 ESE 20 32 11 17 1024.2 1023.3 0.0
21/09:30am 20.8 14.2 -8.6 13 11.2 ESE 19 28 10 15 1024.3 1023.4 0.0
21/09:00am 19.7 13.1 -6.8 16 10.3 ESE 20 33 11 18 1024.4 1023.5 0.0
21/08:30am 18.4 11.5 -6.3 18 9.6 ESE 22 35 12 19 1024.4 1023.5 0.0
21/08:00am 17.3 12.5 -5.8 20 8.9 ESE 11 26 6 14 1024.1 1023.2 0.0
21/07:30am 13.2 10.6 -5.4 27 6.9 CALM 0 0 0 0 1023.6 1022.7 0.0
21/07:00am 8.7 5.6 -6.6 33 5.2 WNW 2 4 1 2 1023.1 1022.2 0.0
21/06:30am 6.1 2.5 -7.5 37 4.4 WNW 4 6 2 3 1022.9 1022.0 0.0
21/06:00am 5.6 2.8 -7.2 39 4.1 CALM 0 4 0 2 1022.4 1021.5 0.0
21/05:30am 5.9 3.1 -7.3 38 4.3 CALM 0 0 0 0 1021.9 1021.0 0.0
21/05:00am 6.5 2.9 -7.8 35 4.6 W 4 6 2 3 1021.6 1020.7 0.0
21/04:30am 8.0 5.1 -8.1 31 5.3 CALM 0 0 0 0 1021.3 1020.4 0.0
21/04:00am 8.9 6.0 -8.1 29 5.6 CALM 0 0 0 0 1021.1 1020.2 0.0
21/03:30am 10.5 7.2 -8.2 26 6.3 N 2 4 1 2 1020.8 1019.9 0.0
21/03:00am 10.9 8.0 -7.8 26 6.4 CALM 0 4 0 2 1020.5 1019.5 0.0
21/02:30am 11.4 8.5 -7.9 25 6.7 CALM 0 0 0 0 1020.2 1019.2 0.0
21/02:00am 12.7 9.4 -8.4 22 7.3 SW 2 6 1 3 1020.2 1019.2 0.0
21/01:30am 13.5 9.4 -8.4 21 7.7 SW 6 9 3 5 1020.2 1019.2 0.0
21/01:00am 14.2 10.1 -9.1 19 8.1 SW 6 9 3 5 1020.1 1019.1 0.0
21/12:30am 14.4 10.2 -9.6 18 8.3 SW 6 9 3 5 1020.3 1019.3 0.0
21/12:00am 15.8 11.0 -9.9 16 8.9 SSW 9 13 5 7 1020.1 1019.1 0.0
 
Date/Time
EST
Temp
°C
App
Temp
°C
Dew
Point
°C
Rel
Hum
%
Delta-T
°C
Wind Press
QNH
hPa
Press
MSL
hPa
Rain since
9am
mm
Dir  Spd
km/h
Gust
km/h
Spd
kts
Gust
kts
20/11:30pm 16.3 12.0 -11.2 14 9.4 S 6 11 3 6 1019.9 1019.0 0.0
20/11:00pm 17.0 12.7 -11.6 13 9.7 S 6 9 3 5 1019.7 1018.8 0.0
20/10:30pm 18.5 12.8 -12.5 11 10.6 SSW 13 20 7 11 1019.4 1018.5 0.0
20/10:00pm 19.6 13.5 -12.8 10 11.1 SSW 15 22 8 12 1019.2 1018.3 0.0
20/09:30pm 19.4 14.4 -13.0 10 11.1 SSW 9 15 5 8 1019.2 1018.3 0.0
20/09:00pm 19.9 14.9 -13.9 9 11.4 SSW 9 13 5 7 1019.0 1018.1 0.0
20/08:30pm 20.8 15.4 -14.6 8 12.0 SW 11 19 6 10 1018.4 1017.5 0.0
20/08:00pm 21.6 16.2 -14.0 8 12.3 SSW 11 17 6 9 1018.1 1017.2 0.0
20/07:30pm 23.3 17.9 -14.4 7 13.2 SSW 11 19 6 10 1017.5 1016.6 0.0
20/07:00pm 23.9 17.6 -15.8 6 13.6 SSW 15 20 8 11 1017.0 1016.0 0.0
20/06:30pm 25.0 19.9 -15.0 6 14.1 SSW 9 15 5 8 1016.5 1015.5 0.0
20/06:00pm 26.7 21.0 -11.9 7 14.7 SSW 13 20 7 11 1015.8 1014.9 0.0
20/05:30pm 27.9 22.0 -9.4 8 15.0 SSW 15 30 8 16 1015.3 1014.4 0.0
20/05:00pm 28.8 23.0 -8.7 8 15.4 SSW 15 24 8 13 1014.9 1014.0 0.0
20/04:30pm 29.4 23.3 -8.2 8 15.7 SSW 17 28 9 15 1014.5 1013.6 0.0
20/04:00pm 29.9 23.8 -7.9 8 15.9 SSW 17 30 9 16 1014.3 1013.4 0.0
20/03:30pm 30.9 26.1 -5.6 9 16.1 SW 11 24 6 13 1014.2 1013.3 0.0
20/03:00pm 31.1 25.6 -5.5 9 16.2 SSW 15 24 8 13 1014.3 1013.4 0.0
20/02:30pm 30.6 25.3 -3.2 11 15.5 SW 15 28 8 15 1014.4 1013.5 0.0
20/02:00pm 30.6 25.9 -2.0 12 15.3 SW 13 20 7 11 1014.6 1013.7 0.0
20/01:30pm 30.6 25.5 -2.0 12 15.3 SW 15 24 8 13 1014.9 1014.0 0.0
20/01:00pm 30.4 26.7 -0.1 14 14.8 S 9 20 5 11 1015.4 1014.5 0.0
20/12:30pm 29.7 26.1 2.9 18 13.6 S 11 20 6 11 1015.9 1015.0 0.0
20/12:00pm 29.1 27.0 6.5 24 12.1 SSE 7 17 4 9 1016.4 1015.4 0.0
20/11:30am 27.1 23.8 6.5 27 10.9 SSE 13 24 7 13 1016.9 1015.9 0.0
20/11:00am 27.2 24.4 7.1 28 10.8 SSE 11 20 6 11 1017.3 1016.4 0.0
20/10:30am 26.8 24.9 6.8 28 10.7 S 6 11 3 6 1017.4 1016.5 0.0
20/10:00am 25.6 22.7 6.3 29 10.1 SSE 11 19 6 10 1017.5 1016.6 0.0
20/09:30am 24.6 22.0 5.9 30 9.7 S 9 19 5 10 1017.5 1016.6 0.0
20/09:00am 23.7 21.3 5.1 30 9.4 SSW 7 17 4 9 1017.4 1016.5 0.0
20/08:30am 22.1 18.8 2.2 27 9.5 SSW 9 15 5 8 1017.5 1016.6 0.0
20/08:00am 20.6 16.5 -0.1 25 9.3 SW 11 19 6 10 1017.3 1016.4 0.0
20/07:30am 19.3 16.0 -0.1 27 8.6 SW 7 11 4 6 1017.0 1016.0 0.0
20/07:00am 18.1 14.8 -0.2 29 8.0 WSW 7 11 4 6 1016.9 1015.9 0.0
20/06:30am 16.4 13.1 0.1 33 7.1 W 7 9 4 5 1016.7 1015.7 0.0
20/06:00am 16.1 13.0 0.3 34 6.9 WNW 6 7 3 4 1015.9 1015.0 0.0
20/05:30am 16.2 13.2 1.9 38 6.5 WNW 7 9 4 5 1015.5 1014.6 0.0
20/05:00am 16.1 14.6 4.8 47 5.4 W 2 4 1 2 1015.2 1014.3 0.0
20/04:30am 17.4 14.7 5.7 46 5.8 W 9 15 5 8 1014.9 1014.0 0.0
20/04:00am 15.3 14.2 7.1 58 4.1 WSW 2 6 1 3 1014.5 1013.6 0.0
20/03:30am 16.1 14.4 7.6 57 4.3 WNW 6 15 3 8 1014.1 1013.2 0.0
20/03:00am 17.4 15.8 8.0 54 4.8 ESE 6 6 3 3 1013.9 1012.9 0.0
20/02:30am 17.3 15.6 7.4 52 5.0 W 6 15 3 8 1014.4 1013.5 0.0
20/02:00am 18.8 15.8 7.9 49 5.7 E 13 17 7 9 1013.8 1012.8 0.0
20/01:30am 19.0 16.5 8.4 50 5.6 E 11 13 6 7 1014.1 1013.2 0.0
20/01:00am 20.1 18.0 8.1 46 6.3 ENE 9 9 5 5 1014.3 1013.4 0.0
20/12:30am 19.1 17.5 6.2 43 6.5 E 4 6 2 3 1014.5 1013.6 0.0
20/12:00am 22.0 19.4 7.8 40 7.5 NNE 11 15 6 8 1014.6 1013.7 0.0
 
Date/Time
EST
Temp
°C
App
Temp
°C
Dew
Point
°C
Rel
Hum
%
Delta-T
°C
Wind Press
QNH
hPa
Press
MSL
hPa
Rain since
9am
mm
Dir  Spd
km/h
Gust
km/h
Spd
kts
Gust
kts
19/11:30pm 21.0 19.5 8.3 44 6.7 NE 6 15 3 8 1014.7 1013.8 0.0
19/11:00pm 19.9 18.7 6.6 42 6.8 NNE 2 6 1 3 1014.7 1013.8 0.0
19/10:30pm 19.9 19.0 5.9 40 7.0 CALM 0 0 0 0 1014.6 1013.7 0.0
19/10:00pm 22.8 21.0 7.0 36 8.3 NNE 6 7 3 4 1014.5 1013.6 0.0
19/09:30pm 22.8 20.9 6.6 35 8.4 NNE 6 7 3 4 1014.5 1013.6 0.0
19/09:00pm 22.1 20.5 6.3 36 8.1 NNE 4 7 2 4 1014.5 1013.6 0.0
19/08:30pm 21.9 20.6 5.8 35 8.2 ENE 2 2 1 1 1014.3 1013.4 0.0
19/08:00pm 21.8 20.6 4.8 33 8.5 CALM 0 4 0 2 1014.0 1013.1 0.0
19/07:30pm 26.1 23.9 6.2 28 10.5 NE 7 9 4 5 1013.7 1012.7 0.0
19/07:00pm 26.8 24.5 5.7 26 11.0 NE 7 9 4 5 1013.5 1012.5 0.0
19/06:30pm 27.7 25.4 5.9 25 11.5 ENE 7 7 4 4 1013.3 1012.3 0.0
19/06:00pm 27.5 25.5 6.3 26 11.3 ENE 6 7 3 4 1013.0 1012.0 0.0
19/05:30pm 28.9 27.6 7.5 26 11.7 ESE 4 6 2 3 1012.8 1011.8 0.0
19/05:00pm 29.4 27.5 6.7 24 12.3 ESE 6 7 3 4 1012.6 1011.6 0.0
19/04:30pm 30.6 29.0 6.5 22 13.1 SE 4 9 2 5 1012.5 1011.5 0.0
19/04:00pm 31.0 29.8 8.1 24 12.8 NNW 4 11 2 6 1012.3 1011.3 0.0
19/03:30pm 30.4 28.8 8.2 25 12.4 S 6 9 3 5 1012.4 1011.4 0.0
19/03:00pm 31.2 30.0 9.4 26 12.4 NW 6 13 3 7 1012.6 1011.6 0.0
19/02:30pm 30.0 28.1 9.0 27 11.8 NW 9 17 5 9 1013.1 1012.1 0.0
19/02:00pm 29.4 28.3 10.0 30 11.1 E 6 9 3 5 1013.6 1012.6 0.0
19/01:30pm 29.4 27.0 10.0 30 11.1 NNW 13 24 7 13 1014.3 1013.4 0.0
19/01:00pm 29.3 27.1 10.9 32 10.6 NNE 13 22 7 12 1014.8 1013.9 0.0
19/12:30pm 28.6 27.0 11.6 34 9.9 N 11 20 6 11 1015.4 1014.5 0.0
19/12:00pm 27.8 25.1 11.8 37 9.3 NNE 17 30 9 16 1015.6 1014.7 0.0
19/11:30am 25.8 23.3 11.2 40 8.3 NNE 15 28 8 15 1016.2 1015.2 0.0
19/11:00am 26.1 24.5 12.9 44 7.8 NNE 13 24 7 13 1017.5 1016.6 0.0
19/10:30am 24.1 22.4 12.4 48 6.8 NNE 13 24 7 13 1018.3 1017.4 0.0
19/10:00am 23.1 21.5 12.7 52 6.0 NNE 13 24 7 13 1018.9 1018.0 0.0
19/09:30am 21.9 20.7 12.7 56 5.3 N 11 19 6 10 1019.3 1018.4 0.0
19/09:00am 21.1 19.6 13.0 60 4.7 NNE 13 20 7 11 1019.6 1018.7 0.0
19/08:30am 19.8 18.8 13.3 66 3.7 NNE 11 15 6 8 1019.7 1018.8 0.0
19/08:00am 18.9 18.2 13.3 70 3.2 N 9 15 5 8 1019.6 1018.7 0.0
19/07:30am 17.8 17.4 13.1 74 2.7 ENE 7 13 4 7 1019.2 1018.3 0.0
19/07:00am 16.9 17.2 13.4 80 2.0 E 4 7 2 4 1018.7 1017.8 0.0
19/06:30am 15.6 15.4 12.9 84 1.5 ENE 6 9 3 5 1018.3 1017.4 0.0
19/06:00am 15.2 15.0 12.9 86 1.3 ENE 6 9 3 5 1017.6 1016.7 0.0
19/05:30am 15.6 15.2 13.1 85 1.4 ENE 7 13 4 7 1017.0 1016.0 0.0
19/05:00am 15.5 14.7 13.0 85 1.4 ENE 9 15 5 8 1016.7 1015.7 0.0
19/04:30am 15.7 15.4 12.8 83 1.6 ENE 6 9 3 5 1016.9 1015.9 0.0
19/04:00am 15.8 15.4 12.9 83 1.6 E 7 11 4 6 1016.6 1015.6 0.0
19/03:30am 16.4 15.6 12.9 80 2.0 NE 9 13 5 7 1016.4 1015.4 0.0
19/03:00am 16.9 15.8 13.0 78 2.2 NNE 11 15 6 8 1016.5 1015.5 0.0
19/02:30am 17.3 16.2 13.0 76 2.4 NE 11 20 6 11 1016.4 1015.4 0.0
19/02:00am 17.4 15.8 12.9 75 2.5 ENE 13 20 7 11 1016.3 1015.3 0.0
19/01:30am 17.8 16.9 12.7 72 2.9 ENE 9 17 5 9 1016.6 1015.6 0.0
19/01:00am 18.6 17.1 13.0 70 3.2 NE 13 22 7 12 1016.9 1015.9 0.0
19/12:30am 19.0 18.1 12.7 67 3.6 NE 9 17 5 9 1017.3 1016.4 0.0
19/12:00am 19.7 16.8 12.9 65 3.9 NE 20 35 11 19 1017.1 1016.1 0.0
 
Date/Time
EST
Temp
°C
App
Temp
°C
Dew
Point
°C
Rel
Hum
%
Delta-T
°C
Wind Press
QNH
hPa
Press
MSL
hPa
Rain since
9am
mm
Dir  Spd
km/h
Gust
km/h
Spd
kts
Gust
kts
18/11:30pm 20.2 17.8 12.7 62 4.3 NE 17 28 9 15 1017.1 1016.1 0.0
18/11:00pm 20.9 19.2 12.3 58 4.9 NE 13 22 7 12 1016.9 1015.9 0.0
18/10:30pm 21.6 19.7 11.9 54 5.5 NE 13 24 7 13 1016.8 1015.8 0.0
18/10:00pm 22.1 19.7 11.5 51 6.0 ENE 15 22 8 12 1016.4 1015.4 0.0
18/09:30pm 22.2 19.4 8.7 42 7.3 ENE 13 19 7 10 1016.0 1015.1 0.0
18/09:00pm 21.1 19.0 6.6 39 7.4 E 7 9 4 5 1015.7 1014.8 0.0
18/08:30pm 21.5 19.7 7.3 40 7.4 E 6 7 3 4 1015.7 1014.8 0.0
18/08:00pm 21.7 20.3 7.2 39 7.6 E 4 6 2 3 1015.4 1014.5 0.0
18/07:30pm 22.1 20.2 6.7 37 8.0 E 6 6 3 3 1015.1 1014.2 0.0
18/07:00pm 23.1 21.0 6.8 35 8.5 E 7 9 4 5 1014.9 1014.0 0.0
18/06:30pm 25.1 22.8 7.3 32 9.5 ENE 9 13 5 7 1014.6 1013.7 0.0
18/06:00pm 25.9 23.5 7.0 30 10.1 E 9 17 5 9 1014.2 1013.3 0.0
18/05:30pm 27.7 24.9 7.0 27 11.1 ENE 11 15 6 8 1014.2 1013.3 0.0
18/05:00pm 28.3 26.0 7.5 27 11.3 NNE 9 17 5 9 1014.1 1013.2 0.0
18/04:30pm 28.6 26.4 7.8 27 11.4 NE 9 17 5 9 1014.3 1013.4 0.0
18/04:00pm 28.9 27.0 7.5 26 11.7 NE 7 13 4 7 1014.4 1013.5 0.0
18/03:30pm 28.6 26.0 7.8 27 11.4 NNE 11 20 6 11 1014.6 1013.7 0.0
18/03:00pm 28.8 27.0 7.9 27 11.5 NNE 7 20 4 11 1014.9 1014.0 0.0
18/02:30pm 28.9 26.5 8.6 28 11.3 N 11 20 6 11 1015.3 1014.4 0.0
18/02:00pm 27.3 25.7 8.7 31 10.3 NE 7 17 4 9 1015.8 1014.9 0.0
18/01:30pm 27.2 24.2 9.1 32 10.1 NNE 15 24 8 13 1016.6 1015.6 0.0
18/01:00pm 28.0 25.3 10.2 33 10.1 NNE 15 26 8 14 1017.1 1016.1 0.0

Other Formats:

Comma delimited format used in spreadsheet applications
http://www.bom.gov.au/fwo/IDQ60801/IDQ60801.94399.axf

JavaScript Object Notation format (JSON) in row-major order
http://www.bom.gov.au/fwo/IDQ60801/IDQ60801.94399.json